createdAt,value
2022-11-22T00:00:19.353Z,95159.97
2022-11-22T00:02:46.484Z,95164.66
2022-11-22T00:05:13.644Z,95164.66
2022-11-22T00:07:40.614Z,95162.63
2022-11-22T00:10:08.772Z,95182.47
2022-11-22T00:12:35.542Z,95173.56
2022-11-22T00:15:02.236Z,95181.78
2022-11-22T00:17:28.997Z,95172.88
2022-11-22T00:19:55.647Z,95177.66
2022-11-22T00:22:22.413Z,95159.81
2022-11-22T00:24:51.424Z,95165.31
2022-11-22T00:27:18.903Z,95167.34
2022-11-22T00:29:45.789Z,95167.34
2022-11-22T00:32:13.631Z,95164.59
2022-11-22T00:34:40.329Z,95162.56
2022-11-22T00:37:07.234Z,95165.22
2022-11-22T00:39:33.879Z,95166.56
2022-11-22T00:42:00.644Z,95170.56
2022-11-22T00:44:27.294Z,95168.53
2022-11-22T00:46:54.194Z,95167.81
2022-11-22T00:49:20.910Z,95175.34
2022-11-22T00:51:47.657Z,95174.59
2022-11-22T00:54:14.337Z,95178.69
2022-11-22T00:56:41.061Z,95184.84
2022-11-22T00:59:07.689Z,95180.03
2022-11-22T01:01:34.502Z,95171.81
2022-11-22T01:04:01.194Z,95173.16
2022-11-22T01:06:27.987Z,95175.78
2022-11-22T01:08:54.780Z,95174.41
2022-11-22T01:11:21.579Z,95179.16
2022-11-22T01:13:48.227Z,95182.53
2022-11-22T01:16:16.929Z,95180.44
2022-11-22T01:18:43.709Z,95179.75
2022-11-22T01:21:10.537Z,95187.16
2022-11-22T01:23:37.575Z,95191.94
2022-11-22T01:26:09.064Z,95193.88
2022-11-22T01:28:36.683Z,95198.03
2022-11-22T01:31:03.649Z,95202.09
2022-11-22T01:33:30.658Z,95209.59
2022-11-22T01:35:58.340Z,95210.22
2022-11-22T01:38:25.798Z,95216.34
2022-11-22T01:40:53.234Z,95221.09
2022-11-22T01:43:25.581Z,95212.81
2022-11-22T01:46:03.201Z,95228.50
2022-11-22T01:48:51.332Z,95230.56
2022-11-22T01:51:24.374Z,95231.19
2022-11-22T01:53:52.620Z,95222.88
2022-11-22T01:56:20.904Z,95233.81
2022-11-22T01:58:57.220Z,95232.44
2022-11-22T02:01:31.845Z,95235.16
2022-11-22T02:04:00.520Z,95233.81
2022-11-22T02:06:39.746Z,95239.22
2022-11-22T02:09:11.873Z,95252.22
2022-11-22T02:11:46.907Z,95252.22
2022-11-22T02:14:15.761Z,95269.31
2022-11-22T02:16:43.856Z,95262.44
2022-11-22T02:19:16.426Z,95259.72
2022-11-22T02:21:45.077Z,95259.00
2022-11-22T02:24:26.615Z,95263.78
2022-11-22T02:26:53.385Z,95263.84
2022-11-22T02:29:24.862Z,95261.03
2022-11-22T02:31:52.902Z,95265.81
2022-11-22T02:34:19.549Z,95271.19
2022-11-22T02:36:50.038Z,95272.53
2022-11-22T02:39:20.653Z,95278.00
2022-11-22T02:41:47.969Z,95279.72
2022-11-22T02:44:15.120Z,95269.16
2022-11-22T02:46:49.665Z,95264.84
2022-11-22T02:49:18.509Z,95270.25
2022-11-22T02:51:45.412Z,95263.38
2022-11-22T02:54:12.311Z,95267.47
2022-11-22T02:56:39.043Z,95278.28
2022-11-22T02:59:05.890Z,95278.94
2022-11-22T03:01:32.734Z,95272.75
2022-11-22T03:03:59.550Z,95270.66
2022-11-22T03:06:26.380Z,95265.78
2022-11-22T03:08:56.380Z,95267.81
2022-11-22T03:11:23.943Z,95255.50
2022-11-22T03:13:50.698Z,95256.72
2022-11-22T03:16:17.445Z,95254.69
2022-11-22T03:18:44.124Z,95262.19
2022-11-22T03:21:11.050Z,95258.69
2022-11-22T03:23:37.882Z,95253.16
2022-11-22T03:26:13.646Z,95255.09
2022-11-22T03:28:40.478Z,95253.06
2022-11-22T03:31:07.727Z,95249.56
2022-11-22T03:33:35.461Z,95248.13
2022-11-22T03:36:03.335Z,95249.44
2022-11-22T03:38:30.418Z,95244.63
2022-11-22T03:40:57.161Z,95242.50
2022-11-22T03:43:24.206Z,95254.06
2022-11-22T03:45:50.954Z,95260.13
2022-11-22T03:48:17.965Z,95264.19
2022-11-22T03:50:44.866Z,95263.38
2022-11-22T03:53:12.058Z,95259.25
2022-11-22T03:55:39.089Z,95259.88
2022-11-22T03:58:06.315Z,95263.94
2022-11-22T04:00:33.674Z,95261.84
2022-11-22T04:03:00.414Z,95262.44
2022-11-22T04:05:27.198Z,95264.47
2022-11-22T04:07:59.794Z,95267.13
2022-11-22T04:10:26.791Z,95268.47
2022-11-22T04:12:58.255Z,95267.69
2022-11-22T04:15:26.305Z,95267.69
2022-11-22T04:17:53.186Z,95268.31
2022-11-22T04:20:41.157Z,95260.00
2022-11-22T04:23:10.902Z,95277.72
2022-11-22T04:25:40.084Z,95269.47
2022-11-22T04:28:08.301Z,95279.06
2022-11-22T04:30:53.954Z,95275.56
2022-11-22T04:33:21.202Z,95276.84
2022-11-22T04:35:48.499Z,95271.31
2022-11-22T04:38:16.225Z,95265.16
2022-11-22T04:40:43.287Z,95252.91
2022-11-22T04:43:33.740Z,95258.28
2022-11-22T04:46:00.445Z,95263.06
2022-11-22T04:48:27.092Z,95254.75
2022-11-22T04:51:12.461Z,95265.59
2022-11-22T04:53:39.271Z,95273.72
2022-11-22T04:56:05.968Z,95271.59
2022-11-22T04:58:32.743Z,95270.28
2022-11-22T05:01:00.686Z,95276.38
2022-11-22T05:03:27.463Z,95277.00
2022-11-22T05:05:54.334Z,95263.34
2022-11-22T05:08:21.189Z,95268.09
2022-11-22T05:10:58.052Z,95281.66
2022-11-22T05:13:36.344Z,95275.50
2022-11-22T05:16:04.948Z,95295.22
2022-11-22T05:18:31.821Z,95300.00
2022-11-22T05:21:00.773Z,95306.09
2022-11-22T05:23:46.073Z,95315.56
2022-11-22T05:26:12.870Z,95323.69
2022-11-22T05:28:39.901Z,95326.44
2022-11-22T05:31:12.075Z,95321.59
2022-11-22T05:33:40.420Z,95323.69
2022-11-22T05:36:07.763Z,95314.81
2022-11-22T05:38:35.905Z,95316.84
2022-11-22T05:41:03.685Z,95311.38
2022-11-22T05:43:30.731Z,95316.84
2022-11-22T05:46:25.501Z,95318.75
2022-11-22T05:48:53.742Z,95316.72
2022-11-22T05:51:22.715Z,95316.66
2022-11-22T05:53:49.702Z,95313.22
2022-11-22T05:56:21.849Z,95315.16
2022-11-22T05:58:49.342Z,95321.94
2022-11-22T06:01:18.286Z,95319.13
2022-11-22T06:03:45.445Z,95317.81
2022-11-22T06:06:12.625Z,95314.28
2022-11-22T06:08:41.183Z,95313.47
2022-11-22T06:11:15.495Z,95316.91
2022-11-22T06:13:44.193Z,95316.91
2022-11-22T06:16:11.641Z,95314.09
2022-11-22T06:18:38.494Z,95323.63
2022-11-22T06:21:07.870Z,95333.84
2022-11-22T06:23:35.102Z,95339.91
2022-11-22T06:26:09.868Z,95327.56
2022-11-22T06:28:37.765Z,95331.63
2022-11-22T06:31:25.513Z,95347.31
2022-11-22T06:33:57.313Z,95346.50
2022-11-22T06:36:26.426Z,95348.53
2022-11-22T06:38:53.430Z,95338.88
2022-11-22T06:41:22.589Z,95342.81
2022-11-22T06:43:51.045Z,95337.53
2022-11-22T06:46:25.922Z,95342.69
2022-11-22T06:48:53.750Z,95339.34
2022-11-22T06:51:23.127Z,95341.25
2022-11-22T06:53:50.905Z,95344.88
2022-11-22T06:56:20.316Z,95343.03
2022-11-22T06:58:47.965Z,95346.66
2022-11-22T07:01:17.808Z,95341.50
2022-11-22T07:03:44.928Z,95347.44
2022-11-22T07:06:13.386Z,95345.00
2022-11-22T07:08:40.789Z,95350.88
2022-11-22T07:11:09.566Z,95361.13
2022-11-22T07:13:36.902Z,95356.47
2022-11-22T07:16:06.009Z,95370.06
2022-11-22T07:18:32.889Z,95368.34
2022-11-22T07:21:10.915Z,95369.75
2022-11-22T07:23:40.822Z,95372.09
2022-11-22T07:26:07.446Z,95360.59
2022-11-22T07:28:34.552Z,95372.09
2022-11-22T07:31:06.772Z,95375.41
2022-11-22T07:33:33.821Z,95372.94
2022-11-22T07:36:12.117Z,95370.84
2022-11-22T07:38:39.249Z,95377.31
2022-11-22T07:41:06.608Z,95381.81
2022-11-22T07:43:33.746Z,95385.47
2022-11-22T07:46:04.557Z,95402.38
2022-11-22T07:48:31.322Z,95413.97
2022-11-22T07:51:06.126Z,95410.06
2022-11-22T07:53:33.786Z,95410.06
2022-11-22T07:56:05.041Z,95403.09
2022-11-22T07:58:32.413Z,95399.97
2022-11-22T08:00:59.147Z,95400.22
2022-11-22T08:03:29.211Z,95398.09
2022-11-22T08:06:00.805Z,95412.13
2022-11-22T08:08:28.242Z,95404.66
2022-11-22T08:10:54.969Z,95403.88
2022-11-22T08:13:22.234Z,95405.88
2022-11-22T08:15:49.701Z,95406.81
2022-11-22T08:18:17.218Z,95422.03
2022-11-22T08:20:43.933Z,95424.53
2022-11-22T08:23:10.992Z,95416.06
2022-11-22T08:25:37.673Z,95423.38
2022-11-22T08:28:04.658Z,95416.06
2022-11-22T08:30:31.411Z,95412.28
2022-11-22T08:32:58.363Z,95420.47
2022-11-22T08:35:26.579Z,95424.25
2022-11-22T08:37:57.478Z,95423.75
2022-11-22T08:40:24.609Z,95420.88
2022-11-22T08:42:53.874Z,95418.56
2022-11-22T08:45:20.685Z,95423.03
2022-11-22T08:47:49.033Z,95401.09
2022-11-22T08:50:17.446Z,95405.88
2022-11-22T08:52:44.370Z,95413.38
2022-11-22T08:55:11.117Z,95412.94
2022-11-22T08:57:37.862Z,95416.72
2022-11-22T09:00:06.455Z,95411.69
2022-11-22T09:02:33.206Z,95412.47
2022-11-22T09:04:59.917Z,95408.22
2022-11-22T09:10:14.959Z,95402.91
2022-11-22T09:12:45.756Z,95405.75
2022-11-22T09:15:12.777Z,95415.44
2022-11-22T09:17:39.634Z,95405.66
2022-11-22T09:20:07.409Z,95412.94
2022-11-22T09:22:34.600Z,95416.63
2022-11-22T09:25:01.776Z,95404.34
2022-11-22T09:27:28.742Z,95392.13
2022-11-22T09:29:55.513Z,95382.84
2022-11-22T09:32:22.197Z,95391.41
2022-11-22T09:34:49.072Z,95386.34
2022-11-22T09:37:18.621Z,95396.47
2022-11-22T09:39:48.866Z,95408.16
2022-11-22T09:42:34.689Z,95400.28
2022-11-22T09:45:28.915Z,95401.06
2022-11-22T09:48:10.088Z,95404.00
2022-11-22T09:50:40.024Z,95397.63
2022-11-22T09:53:41.214Z,95377.50
2022-11-22T09:56:12.204Z,95391.84
2022-11-22T09:58:51.531Z,95392.69
2022-11-22T10:01:32.145Z,95394.53
2022-11-22T10:04:19.093Z,95387.28
2022-11-22T10:06:49.773Z,95399.31
2022-11-22T10:09:28.729Z,95391.22
2022-11-22T10:12:01.661Z,95397.28
2022-11-22T10:14:59.386Z,95384.16
2022-11-22T10:17:28.850Z,95389.94
2022-11-22T10:20:19.777Z,95373.78
2022-11-22T10:22:47.411Z,95372.84
2022-11-22T10:25:15.342Z,95382.09
2022-11-22T10:27:43.010Z,95371.50
2022-11-22T10:30:20.587Z,95370.53
2022-11-22T10:33:20.199Z,95374.88
2022-11-22T10:35:59.542Z,95362.91
2022-11-22T10:38:35.338Z,95372.06
2022-11-22T10:41:42.997Z,95365.34
2022-11-22T10:44:46.073Z,95371.53
2022-11-22T10:47:53.550Z,95341.84
2022-11-22T10:50:49.979Z,95345.28
2022-11-22T10:54:03.315Z,95349.22
2022-11-22T10:56:54.293Z,95356.53
2022-11-22T10:59:31.360Z,95362.13
2022-11-22T11:02:35.684Z,95363.50
2022-11-22T11:05:06.159Z,95359.91
2022-11-22T11:07:34.105Z,95357.16
2022-11-22T11:10:16.121Z,95351.53
2022-11-22T11:13:02.451Z,95350.22
2022-11-22T11:15:42.185Z,95353.94
2022-11-22T11:18:16.555Z,95349.16
2022-11-22T11:20:43.873Z,95347.31
2022-11-22T11:23:15.460Z,95356.47
2022-11-22T11:25:45.207Z,95342.09
2022-11-22T11:28:22.391Z,95341.66
2022-11-22T11:30:58.838Z,95346.16
2022-11-22T11:33:31.622Z,95347.97
2022-11-22T11:36:11.362Z,95358.09
2022-11-22T11:38:49.255Z,95348.69
2022-11-22T11:41:30.018Z,95345.50
2022-11-22T11:44:03.982Z,95348.22
2022-11-22T11:46:39.557Z,95338.09
2022-11-22T11:49:21.405Z,95363.78
2022-11-22T11:51:50.019Z,95345.72
2022-11-22T11:54:20.590Z,95353.13
2022-11-22T11:56:57.753Z,95347.66
2022-11-22T11:59:46.965Z,95341.31
2022-11-22T12:02:13.717Z,95345.38
2022-11-22T12:04:54.576Z,95341.66
2022-11-22T12:07:27.193Z,95338.41
2022-11-22T12:09:55.493Z,95349.16
2022-11-22T12:12:45.837Z,95342.09
2022-11-22T12:15:17.803Z,95339.28
2022-11-22T12:18:11.580Z,95320.94
2022-11-22T12:21:04.350Z,95346.16
2022-11-22T12:24:34.875Z,95353.56
2022-11-22T12:26:59.885Z,95352.59
2022-11-22T12:29:26.782Z,95349.06
2022-11-22T12:32:01.638Z,95346.41
2022-11-22T12:34:31.765Z,95356.44
2022-11-22T12:37:12.705Z,95350.81
2022-11-22T12:39:40.543Z,95356.38
2022-11-22T12:42:11.018Z,95368.16
2022-11-22T12:44:41.747Z,95356.03
2022-11-22T12:47:13.403Z,95360.59
2022-11-22T12:49:43.880Z,95354.44
2022-11-22T12:52:47.841Z,95365.88
2022-11-22T12:55:21.677Z,95369.44
2022-11-22T12:57:51.758Z,95368.28
2022-11-22T13:00:22.013Z,95365.44
2022-11-22T13:03:03.626Z,95367.75
2022-11-22T13:05:56.940Z,95366.25
2022-11-22T13:08:47.443Z,95369.06
2022-11-22T13:11:37.846Z,95362.19
2022-11-22T13:14:21.042Z,95359.28
2022-11-22T13:16:50.482Z,95358.59
2022-11-22T13:19:17.542Z,95353.31
2022-11-22T13:22:21.841Z,95357.44
2022-11-22T13:25:03.584Z,95361.56
2022-11-22T13:27:32.106Z,95356.09
2022-11-22T13:30:00.887Z,95354.34
2022-11-22T13:32:33.167Z,95360.50
2022-11-22T13:35:05.012Z,95364.56
2022-11-22T13:37:35.424Z,95364.63
2022-11-22T13:40:24.082Z,95368.69
2022-11-22T13:43:17.888Z,95363.69
2022-11-22T13:45:48.049Z,95379.63
2022-11-22T13:48:40.572Z,95371.53
2022-11-22T13:51:12.031Z,95374.41
2022-11-22T13:53:42.812Z,95359.66
2022-11-22T13:56:15.676Z,95363.06
2022-11-22T13:58:50.943Z,95368.13
2022-11-22T14:01:36.634Z,95361.09
2022-11-22T14:04:24.803Z,95366.69
2022-11-22T14:07:21.817Z,95355.78
2022-11-22T14:09:48.821Z,95361.91
2022-11-22T14:12:34.205Z,95367.34
2022-11-22T14:15:15.622Z,95363.31
2022-11-22T14:17:57.626Z,95365.53
2022-11-22T14:20:42.368Z,95358.19
2022-11-22T14:23:30.241Z,95362.69
2022-11-22T14:26:09.222Z,95368.72
2022-11-22T14:28:57.944Z,95363.75
2022-11-22T14:31:27.882Z,95378.38
2022-11-22T14:34:20.087Z,95361.41
2022-11-22T14:37:15.653Z,95382.38
2022-11-22T14:39:45.411Z,95391.94
2022-11-22T14:42:37.746Z,95399.31
2022-11-22T14:45:27.772Z,95394.94
2022-11-22T14:48:11.874Z,95395.66
2022-11-22T14:50:38.621Z,95399.69
2022-11-22T14:53:11.394Z,95396.97
2022-11-22T14:55:38.192Z,95404.41
2022-11-22T14:58:07.537Z,95395.94
2022-11-22T15:01:11.517Z,95410.88
2022-11-22T15:09:10.680Z,95394.53
2022-11-22T15:09:15.569Z,95395.63
2022-11-22T15:09:52.613Z,95400.38
2022-11-22T15:12:57.123Z,95395.31
2022-11-22T15:59:03.047Z,95459.16
2022-11-22T16:01:29.787Z,95456.13
2022-11-22T16:03:58.317Z,95463.47
2022-11-22T16:06:27.850Z,95464.28
2022-11-22T16:08:59.056Z,95461.56
2022-11-22T16:11:31.670Z,95463.78
2022-11-22T16:13:58.817Z,95464.28
2022-11-22T16:16:33.303Z,95457.31
2022-11-22T16:19:23.649Z,95472.78
2022-11-22T16:22:00.029Z,95482.28
2022-11-22T16:24:35.738Z,95472.88
2022-11-22T16:27:05.581Z,95475.81
2022-11-22T16:29:34.941Z,95482.56
2022-11-22T16:32:08.814Z,95489.66
2022-11-22T16:34:35.666Z,95480.25
2022-11-22T16:37:02.326Z,95487.72
2022-11-22T16:39:30.259Z,95488.28
2022-11-22T16:41:57.356Z,95497.66
2022-11-22T16:44:24.109Z,95505.63
2022-11-22T16:46:50.833Z,95498.50
2022-11-22T16:49:20.052Z,95511.16
2022-11-22T16:51:50.280Z,95499.88
2022-11-22T16:54:18.923Z,95500.25
2022-11-22T16:56:46.267Z,95503.97
2022-11-22T16:59:13.226Z,95499.47
2022-11-22T17:01:42.102Z,95506.47
2022-11-22T17:04:21.791Z,95517.66
2022-11-22T17:06:48.754Z,95525.50
2022-11-22T17:09:15.527Z,95513.97
2022-11-22T17:11:43.389Z,95523.66
2022-11-22T17:14:14.473Z,95525.88
2022-11-22T17:16:41.919Z,95528.19
2022-11-22T17:19:24.404Z,95535.88
2022-11-22T17:21:56.160Z,95536.72
2022-11-22T17:24:25.737Z,95536.13
2022-11-22T17:26:52.511Z,95529.44
2022-11-22T17:29:48.880Z,95528.84
2022-11-22T17:32:06.465Z,95526.28
2022-11-22T17:34:33.441Z,95536.69
2022-11-22T17:37:00.374Z,95540.81
2022-11-22T17:39:27.026Z,95535.47
2022-11-22T17:41:53.742Z,95547.19
2022-11-22T17:44:20.425Z,95546.56
2022-11-22T17:46:47.365Z,95545.25
2022-11-22T17:49:16.214Z,95552.72
2022-11-22T17:51:43.740Z,95548.78
2022-11-22T17:54:10.516Z,95552.31
2022-11-22T17:56:37.678Z,95548.97
2022-11-22T17:59:04.706Z,95556.47
2022-11-22T18:01:31.622Z,95563.34
2022-11-22T18:03:58.318Z,95566.84
2022-11-22T18:06:26.491Z,95568.28
2022-11-22T18:08:53.368Z,95565.53
2022-11-22T18:11:20.236Z,95567.56
2022-11-22T18:13:47.040Z,95565.63
2022-11-22T18:16:15.657Z,95574.53
2022-11-22T18:18:58.649Z,95582.13
2022-11-22T18:21:29.228Z,95585.56
2022-11-22T18:23:57.856Z,95569.88
2022-11-22T18:26:38.807Z,95580.19
2022-11-22T18:29:38.991Z,95585.66
2022-11-22T18:31:53.777Z,95589.16
2022-11-22T18:34:24.010Z,95588.47
2022-11-22T18:37:06.728Z,95595.34
2022-11-22T18:39:36.756Z,95594.03
2022-11-22T18:42:05.743Z,95590.69
2022-11-22T18:44:32.452Z,95600.28
2022-11-22T18:46:59.152Z,95607.81
2022-11-22T18:49:25.800Z,95590.75
2022-11-22T18:51:52.731Z,95593.50
2022-11-22T18:54:21.722Z,95594.19
2022-11-22T18:56:49.231Z,95605.25
2022-11-22T18:59:20.018Z,95596.94
2022-11-22T19:01:47.275Z,95601.81
2022-11-22T19:04:15.180Z,95592.16
2022-11-22T19:06:42.827Z,95607.28
2022-11-22T19:09:10.172Z,95605.25
2022-11-22T19:11:37.618Z,95618.94
2022-11-22T19:14:04.951Z,95614.88
2022-11-22T19:16:31.962Z,95627.22
2022-11-22T19:18:59.276Z,95622.44
2022-11-22T19:21:28.041Z,95632.06
2022-11-22T19:23:56.336Z,95615.66
2022-11-22T19:26:25.211Z,95617.69
2022-11-22T19:28:56.481Z,95617.69
2022-11-22T19:31:26.024Z,95625.88
2022-11-22T19:33:52.732Z,95625.88
2022-11-22T19:36:21.815Z,95622.44
2022-11-22T19:38:49.593Z,95616.28
2022-11-22T19:41:18.691Z,95615.56
2022-11-22T19:43:46.712Z,95625.88
2022-11-22T19:46:13.987Z,95622.44
2022-11-22T19:48:46.648Z,95626.59
2022-11-22T19:51:15.079Z,95617.69
2022-11-22T19:53:42.570Z,95623.84
2022-11-22T19:56:15.899Z,95621.13
2022-11-22T19:58:44.484Z,95623.97
2022-11-22T20:01:13.279Z,95619.19
2022-11-22T20:03:47.412Z,95623.25
2022-11-22T20:06:15.124Z,95616.44
2022-11-22T20:08:41.825Z,95610.34
2022-11-22T20:11:10.812Z,95623.97
2022-11-22T20:13:42.815Z,95628.09
2022-11-22T20:16:11.761Z,95634.97
2022-11-22T20:18:38.577Z,95630.22
2022-11-22T20:21:06.876Z,95642.47
2022-11-22T20:23:41.586Z,95650.69
2022-11-22T20:26:12.008Z,95645.22
2022-11-22T20:28:40.468Z,95647.97
2022-11-22T20:31:19.158Z,95647.88
2022-11-22T20:33:48.214Z,95654.06
2022-11-22T20:36:18.461Z,95654.06
2022-11-22T20:38:45.990Z,95654.69
2022-11-22T20:41:14.133Z,95665.63
2022-11-22T20:43:41.227Z,95654.56
2022-11-22T20:46:13.305Z,95671.69
2022-11-22T20:48:41.501Z,95664.19
2022-11-22T20:51:10.117Z,95671.69
2022-11-22T20:53:37.338Z,95672.38
2022-11-22T20:56:04.953Z,95680.00
2022-11-22T20:58:32.380Z,95687.50
2022-11-22T21:00:59.509Z,95689.50
2022-11-22T21:03:27.485Z,95704.53
2022-11-22T21:05:55.351Z,95692.25
2022-11-22T21:08:23.033Z,95677.88
2022-11-22T21:10:49.999Z,95674.41
2022-11-22T21:13:16.988Z,95675.13
2022-11-22T21:15:44.014Z,95683.34
2022-11-22T21:18:25.312Z,95682.63
2022-11-22T21:20:52.826Z,95681.94
2022-11-22T21:23:19.603Z,95679.19
2022-11-22T21:25:46.584Z,95686.69
2022-11-22T21:28:14.080Z,95680.53
2022-11-22T21:30:40.754Z,95677.16
2022-11-22T21:33:07.407Z,95681.94
2022-11-22T21:35:34.150Z,95686.69
2022-11-22T21:38:00.768Z,95678.50
2022-11-22T21:40:27.508Z,95686.69
2022-11-22T21:42:54.220Z,95694.19
2022-11-22T21:45:21.014Z,95687.41
2022-11-22T21:47:49.668Z,95689.44
2022-11-22T21:50:16.828Z,95697.63
2022-11-22T21:52:43.511Z,95688.81
2022-11-22T21:55:11.559Z,95694.28
2022-11-22T21:57:38.321Z,95691.53
2022-11-22T22:00:05.935Z,95688.81
2022-11-22T22:02:32.932Z,95692.25
2022-11-22T22:04:59.784Z,95686.69
2022-11-22T22:10:14.890Z,95681.31
2022-11-22T22:12:41.631Z,95683.44
2022-11-22T22:15:14.733Z,95687.50
2022-11-22T22:17:41.495Z,95687.59
2022-11-22T22:20:08.731Z,95689.63
2022-11-22T22:22:38.610Z,95690.25
2022-11-22T22:25:06.341Z,95692.34
2022-11-22T22:27:33.529Z,95690.94
2022-11-22T22:30:00.484Z,95680.72
2022-11-22T22:32:27.754Z,95681.41
2022-11-22T22:34:54.751Z,95680.00
2022-11-22T22:37:21.486Z,95682.03
2022-11-22T22:39:48.250Z,95674.53
2022-11-22T22:42:15.353Z,95680.00
2022-11-22T22:44:42.187Z,95673.81
2022-11-22T22:47:08.925Z,95673.81
2022-11-22T22:49:35.702Z,95676.56
2022-11-22T22:52:02.488Z,95672.38
2022-11-22T22:54:29.354Z,95679.91
2022-11-22T22:56:56.092Z,95674.41
2022-11-22T22:59:22.773Z,95684.66
2022-11-22T23:01:49.400Z,95677.78
2022-11-22T23:04:16.197Z,95683.88
2022-11-22T23:06:42.865Z,95668.88
2022-11-22T23:09:10.966Z,95667.47
2022-11-22T23:11:56.943Z,95672.22
2022-11-22T23:14:27.963Z,95680.34
2022-11-22T23:16:58.068Z,95672.13
2022-11-22T23:19:26.342Z,95678.31
2022-11-22T23:21:53.494Z,95691.28
2022-11-22T23:24:20.390Z,95685.09
2022-11-22T23:26:47.607Z,95689.88
2022-11-22T23:29:14.416Z,95698.78
2022-11-22T23:31:41.143Z,95693.94
2022-11-22T23:34:08.699Z,95698.00
2022-11-22T23:36:40.384Z,95698.00
2022-11-22T23:39:07.661Z,95691.81
2022-11-22T23:41:34.573Z,95695.25
2022-11-22T23:44:01.281Z,95693.13
2022-11-22T23:46:28.862Z,95699.22
2022-11-22T23:48:57.595Z,95704.69
2022-11-22T23:51:25.198Z,95705.38
2022-11-22T23:53:59.089Z,95718.34
2022-11-22T23:56:26.817Z,95716.31
2022-11-22T23:58:53.710Z,95711.47
